createdAt,value
2023-03-01T02:06:44.226Z,11.30
2023-03-01T02:08:17.406Z,10.80
2023-03-01T02:09:17.361Z,11.80
2023-03-01T02:10:17.395Z,11.70
2023-03-01T02:11:17.362Z,11.00
2023-03-01T02:12:17.380Z,11.40
2023-03-01T02:13:17.343Z,11.30
2023-03-01T02:14:17.398Z,11.40
2023-03-01T02:15:17.323Z,11.20
2023-03-01T02:16:17.499Z,12.00
2023-03-01T02:17:17.303Z,11.10
2023-03-01T02:18:18.492Z,11.20
2023-03-01T02:19:18.442Z,11.40
2023-03-01T02:20:18.420Z,11.30
2023-03-01T02:21:18.448Z,11.40
2023-03-01T02:22:19.254Z,11.80
2023-03-01T02:23:18.404Z,11.60
2023-03-01T02:24:20.226Z,11.60
2023-03-01T02:25:19.414Z,11.60
2023-03-01T02:26:18.386Z,11.00
2023-03-01T02:27:18.372Z,11.90
2023-03-01T02:28:18.420Z,11.40
2023-03-01T02:29:18.436Z,11.30
2023-03-01T02:30:18.385Z,11.90
2023-03-01T02:31:18.384Z,11.70
2023-03-01T02:32:18.390Z,11.90
2023-03-01T02:33:18.346Z,11.60
2023-03-01T02:34:18.349Z,11.50
2023-03-01T02:35:18.383Z,11.70
2023-03-01T02:36:18.330Z,12.20
2023-03-01T02:37:18.350Z,12.50
2023-03-01T02:38:18.391Z,11.40
2023-03-01T02:39:18.328Z,11.80
2023-03-01T02:40:18.421Z,11.30
2023-03-01T02:41:18.291Z,11.30
2023-03-01T02:42:18.294Z,11.20
2023-03-01T02:43:18.302Z,11.10
2023-03-01T02:44:18.337Z,10.30
2023-03-01T02:45:18.297Z,10.40
2023-03-01T02:46:18.384Z,10.70
2023-03-01T02:47:18.261Z,11.30
2023-03-01T02:48:18.264Z,10.60
2023-03-01T02:49:18.241Z,11.10
2023-03-01T02:50:18.282Z,11.50
2023-03-01T02:51:18.283Z,11.00
2023-03-01T02:52:18.226Z,11.00
2023-03-01T02:53:18.234Z,12.20
2023-03-01T02:54:18.194Z,11.10
2023-03-01T02:55:18.246Z,11.10
2023-03-01T02:56:18.218Z,11.00
2023-03-01T02:57:18.207Z,11.00
2023-03-01T02:58:18.207Z,11.80
2023-03-01T02:59:18.185Z,11.80
2023-03-01T03:00:18.183Z,11.50
2023-03-01T03:01:18.251Z,10.90
2023-03-01T03:02:18.186Z,11.50
2023-03-01T03:03:18.154Z,11.20
2023-03-01T03:04:18.172Z,12.60
2023-03-01T03:05:18.194Z,12.70
2023-03-01T03:06:18.120Z,12.50
2023-03-01T03:07:18.135Z,12.50
2023-03-01T03:08:18.153Z,12.70
2023-03-01T03:09:18.097Z,12.70
2023-03-01T03:10:18.138Z,13.00
2023-03-01T03:11:18.107Z,12.00
2023-03-01T03:12:18.120Z,12.30
2023-03-01T03:13:18.075Z,11.90
2023-03-01T03:14:18.102Z,12.40
2023-03-01T03:15:18.070Z,13.00
2023-03-01T03:16:18.162Z,12.80
2023-03-01T03:17:18.041Z,12.70
2023-03-01T03:18:18.051Z,12.30
2023-03-01T03:19:18.071Z,12.80
2023-03-01T03:20:18.078Z,12.80
2023-03-01T03:21:18.038Z,11.90
2023-03-01T03:22:18.068Z,12.00
2023-03-01T03:23:18.047Z,10.50
2023-03-01T03:24:18.012Z,11.30
2023-03-01T03:25:18.030Z,12.60
2023-03-01T03:26:18.073Z,12.80
2023-03-01T03:27:18.014Z,12.00
2023-03-01T03:28:18.000Z,11.50
2023-03-01T03:29:17.977Z,11.60
2023-03-01T03:30:17.995Z,12.00
2023-03-01T03:31:17.981Z,11.90
2023-03-01T03:32:17.975Z,11.80
2023-03-01T03:33:17.951Z,13.10
2023-03-01T03:34:17.975Z,12.50
2023-03-01T03:35:17.961Z,12.60
2023-03-01T03:36:17.967Z,11.10
2023-03-01T03:37:17.929Z,12.20
2023-03-01T03:38:17.983Z,11.40
2023-03-01T03:39:20.578Z,12.20
2023-03-01T03:40:17.917Z,11.50
2023-03-01T03:41:17.918Z,11.90
2023-03-01T03:42:17.903Z,12.40
2023-03-01T03:43:17.918Z,12.60
2023-03-01T03:44:17.886Z,11.90
2023-03-01T03:45:17.885Z,12.40
2023-03-01T03:46:17.871Z,13.00
2023-03-01T03:47:18.068Z,13.50
2023-03-01T03:48:17.848Z,13.10
2023-03-01T03:49:17.851Z,13.00
2023-03-01T03:50:17.861Z,12.20
2023-03-01T03:51:17.836Z,12.60
2023-03-01T03:52:17.824Z,12.10
2023-03-01T03:53:17.853Z,12.80
2023-03-01T03:54:17.818Z,13.90
2023-03-01T03:55:17.842Z,13.30
2023-03-01T03:56:17.820Z,13.40
2023-03-01T03:57:17.967Z,11.70
2023-03-01T03:58:17.813Z,12.50
2023-03-01T03:59:17.767Z,12.00
2023-03-01T04:00:17.827Z,12.80
2023-03-01T04:01:17.810Z,11.70
2023-03-01T04:02:17.786Z,12.60
2023-03-01T04:03:17.761Z,13.10
2023-03-01T04:04:17.740Z,13.20
2023-03-01T04:05:17.748Z,12.30
2023-03-01T04:06:17.768Z,13.10
2023-03-01T04:07:17.749Z,12.90
2023-03-01T04:08:17.715Z,13.60
2023-03-01T04:09:17.704Z,13.50
2023-03-01T04:10:18.247Z,12.90
2023-03-01T04:11:17.707Z,13.20
2023-03-01T04:12:17.688Z,13.40
2023-03-01T04:13:17.717Z,13.20
2023-03-01T04:14:17.666Z,13.20
2023-03-01T04:15:17.699Z,13.40
2023-03-01T04:16:17.734Z,13.20
2023-03-01T04:17:17.689Z,13.20
2023-03-01T04:18:17.638Z,13.70
2023-03-01T04:19:17.641Z,13.30
2023-03-01T04:20:17.679Z,13.20
2023-03-01T04:21:17.641Z,13.20
2023-03-01T04:22:17.631Z,12.50
2023-03-01T04:23:18.611Z,12.80
2023-03-01T04:24:17.601Z,13.00
2023-03-01T04:25:17.630Z,13.30
2023-03-01T04:26:17.606Z,12.60
2023-03-01T04:27:17.625Z,12.80
2023-03-01T04:28:17.620Z,12.70
2023-03-01T04:29:17.581Z,12.60
2023-03-01T04:30:17.602Z,12.50
2023-03-01T04:31:17.707Z,13.10
2023-03-01T04:32:17.738Z,12.70
2023-03-01T04:33:17.565Z,12.40
2023-03-01T04:34:17.538Z,13.20
2023-03-01T04:35:17.562Z,12.40
2023-03-01T04:36:17.672Z,12.40
2023-03-01T04:37:17.529Z,12.70
2023-03-01T04:38:17.528Z,11.70
2023-03-01T04:39:17.502Z,12.50
2023-03-01T04:40:17.533Z,12.50
2023-03-01T04:41:17.498Z,12.60
2023-03-01T04:42:17.503Z,12.10
2023-03-01T04:43:17.653Z,12.30
2023-03-01T04:44:17.564Z,13.00
2023-03-01T04:45:17.637Z,12.50
2023-03-01T04:46:17.540Z,12.90
2023-03-01T04:47:17.478Z,13.00
2023-03-01T04:48:17.459Z,12.90
2023-03-01T04:49:17.459Z,12.90
2023-03-01T04:50:17.452Z,12.50
2023-03-01T04:51:17.460Z,12.70
2023-03-01T04:52:17.444Z,13.00
2023-03-01T04:53:17.644Z,12.80
2023-03-01T04:54:17.431Z,12.80
2023-03-01T04:55:17.433Z,13.00
2023-03-01T04:56:17.419Z,12.50
2023-03-01T04:57:17.415Z,12.70
2023-03-01T04:58:18.216Z,12.50
2023-03-01T04:59:17.377Z,12.10
2023-03-01T05:00:17.427Z,11.70
2023-03-01T05:01:18.100Z,12.30
2023-03-01T05:02:17.386Z,12.60
2023-03-01T05:03:17.371Z,12.70
2023-03-01T05:04:17.410Z,12.40
2023-03-01T05:05:17.372Z,12.10
2023-03-01T05:06:17.366Z,13.10
2023-03-01T05:07:17.344Z,12.20
2023-03-01T05:08:17.329Z,12.80
2023-03-01T05:09:17.320Z,13.00
2023-03-01T05:10:17.295Z,12.90
2023-03-01T05:11:17.318Z,13.40
2023-03-01T05:12:17.319Z,13.50
2023-03-01T05:13:17.285Z,11.80
2023-03-01T05:14:17.289Z,12.60
2023-03-01T05:15:17.306Z,12.30
2023-03-01T05:16:17.350Z,15.50
2023-03-01T05:17:17.257Z,13.80
2023-03-01T05:18:17.283Z,12.40
2023-03-01T05:19:17.262Z,12.20
2023-03-01T05:20:17.249Z,12.20
2023-03-01T05:21:17.538Z,12.90
2023-03-01T05:22:17.235Z,12.80
2023-03-01T05:23:17.253Z,12.50
2023-03-01T05:24:17.254Z,12.90
2023-03-01T05:25:17.245Z,12.30
2023-03-01T05:26:27.887Z,13.10
2023-03-01T05:27:19.277Z,22.80
2023-03-01T05:28:17.305Z,20.40
2023-03-01T05:29:17.234Z,14.90
2023-03-01T05:30:17.211Z,17.10
2023-03-01T05:31:17.268Z,19.20
2023-03-01T05:32:17.315Z,24.20
2023-03-01T05:33:17.196Z,19.90
2023-03-01T05:34:17.169Z,16.60
2023-03-01T05:35:17.211Z,15.40
2023-03-01T05:36:17.181Z,13.10
2023-03-01T05:37:17.188Z,13.00
2023-03-01T05:38:17.230Z,13.10
2023-03-01T05:39:17.168Z,13.00
2023-03-01T05:40:17.172Z,12.70
2023-03-01T05:41:17.187Z,13.60
2023-03-01T05:42:17.189Z,12.40
2023-03-01T05:43:17.145Z,12.60
2023-03-01T05:44:17.120Z,12.70
2023-03-01T05:45:17.141Z,12.90
2023-03-01T05:46:17.197Z,12.60
2023-03-01T05:47:17.125Z,13.60
2023-03-01T05:48:17.120Z,12.90
2023-03-01T05:49:17.060Z,12.10
2023-03-01T05:50:18.089Z,12.80
2023-03-01T05:51:17.097Z,12.40
2023-03-01T05:52:17.078Z,12.70
2023-03-01T05:53:17.069Z,12.30
2023-03-01T05:54:17.100Z,12.90
2023-03-01T05:55:17.086Z,12.70
2023-03-01T05:56:17.080Z,12.10
2023-03-01T05:57:17.076Z,13.10
2023-03-01T05:58:17.061Z,13.10
2023-03-01T05:59:17.030Z,13.80
2023-03-01T06:00:17.051Z,14.40
2023-03-01T06:01:17.036Z,12.90
2023-03-01T06:02:17.028Z,12.30
2023-03-01T06:03:16.999Z,12.50
2023-03-01T06:04:17.011Z,12.70
2023-03-01T06:05:17.050Z,13.00
2023-03-01T06:06:17.048Z,12.80
2023-03-01T06:07:17.056Z,12.60
2023-03-01T06:08:16.976Z,12.50
2023-03-01T06:09:16.979Z,12.60
2023-03-01T06:10:16.959Z,12.40
2023-03-01T06:11:17.013Z,12.40
2023-03-01T06:12:16.979Z,12.50
2023-03-01T06:13:16.956Z,12.10
2023-03-01T06:14:16.914Z,12.40
2023-03-01T06:15:19.226Z,12.60
2023-03-01T06:16:17.015Z,12.00
2023-03-01T06:17:16.923Z,12.70
2023-03-01T06:18:16.941Z,12.80
2023-03-01T06:19:16.915Z,12.00
2023-03-01T06:20:17.785Z,12.00
2023-03-01T06:21:16.919Z,12.10
2023-03-01T06:22:16.905Z,12.70
2023-03-01T06:23:16.910Z,11.80
2023-03-01T06:24:17.043Z,11.90
2023-03-01T06:25:16.904Z,12.10
2023-03-01T06:26:16.878Z,11.90
2023-03-01T06:27:16.856Z,12.10
2023-03-01T06:28:16.845Z,12.30
2023-03-01T06:29:16.846Z,12.10
2023-03-01T06:30:16.862Z,12.10
2023-03-01T06:31:16.905Z,12.80
2023-03-01T06:32:16.918Z,12.00
2023-03-01T06:33:16.842Z,12.80
2023-03-01T06:34:16.885Z,11.90
2023-03-01T06:35:16.812Z,12.50
2023-03-01T06:36:16.823Z,12.60
2023-03-01T06:37:16.775Z,12.50
2023-03-01T06:38:16.898Z,11.90
2023-03-01T06:39:16.777Z,13.60
2023-03-01T06:40:17.082Z,12.30
2023-03-01T06:41:16.781Z,11.70
2023-03-01T06:42:16.756Z,11.70
2023-03-01T06:43:17.736Z,11.90
2023-03-01T06:44:16.775Z,11.90
2023-03-01T06:45:16.745Z,11.90
2023-03-01T06:46:16.845Z,11.70
2023-03-01T06:47:16.754Z,12.60
2023-03-01T06:48:16.769Z,11.60
2023-03-01T06:49:16.713Z,11.40
2023-03-01T06:50:16.767Z,11.60
2023-03-01T06:51:16.713Z,11.40
2023-03-01T06:52:17.714Z,11.70
2023-03-01T06:53:16.703Z,12.10
2023-03-01T06:54:16.704Z,12.00
2023-03-01T06:55:16.676Z,11.50
2023-03-01T06:56:17.718Z,11.90
2023-03-01T06:57:16.743Z,11.80
2023-03-01T06:58:16.643Z,11.90
2023-03-01T06:59:16.663Z,11.20
2023-03-01T07:00:16.637Z,11.10
2023-03-01T07:01:16.762Z,11.10
2023-03-01T07:02:16.623Z,11.80
2023-03-01T07:03:16.657Z,11.70
2023-03-01T07:04:16.607Z,11.00
2023-03-01T07:05:16.692Z,10.80
2023-03-01T07:06:16.616Z,11.00
2023-03-01T07:07:16.604Z,11.20
2023-03-01T07:08:16.600Z,10.80
2023-03-01T07:09:16.626Z,11.40
2023-03-01T07:10:16.614Z,10.80
2023-03-01T07:11:16.586Z,10.80
2023-03-01T07:12:16.572Z,17.60
2023-03-01T07:13:16.533Z,19.70
2023-03-01T07:14:16.538Z,10.90
2023-03-01T07:15:16.548Z,11.10
2023-03-01T07:16:16.581Z,10.70
2023-03-01T07:17:16.544Z,10.70
2023-03-01T07:18:16.502Z,10.80
2023-03-01T07:19:16.505Z,10.60
2023-03-01T07:20:16.505Z,10.60
2023-03-01T07:21:16.502Z,10.50
2023-03-01T07:22:16.529Z,11.10
2023-03-01T07:23:16.492Z,10.80
2023-03-01T07:24:16.495Z,11.10
2023-03-01T07:25:16.554Z,10.90
2023-03-01T07:26:16.476Z,10.30
2023-03-01T07:27:16.459Z,10.50
2023-03-01T07:28:21.488Z,11.20
2023-03-01T07:29:16.457Z,11.30
2023-03-01T07:30:16.465Z,11.20
2023-03-01T07:31:16.454Z,10.90
2023-03-01T07:32:16.499Z,11.10
2023-03-01T07:33:16.514Z,10.60
2023-03-01T07:34:16.416Z,10.30
2023-03-01T07:35:16.409Z,10.70
2023-03-01T07:36:16.414Z,10.40
2023-03-01T07:37:16.378Z,10.40
2023-03-01T07:38:16.413Z,10.30
2023-03-01T07:39:18.058Z,10.30
2023-03-01T07:40:16.373Z,10.40
2023-03-01T07:41:16.361Z,10.40
2023-03-01T07:42:16.361Z,9.90
2023-03-01T07:43:16.356Z,9.90
2023-03-01T07:44:16.376Z,10.40
2023-03-01T07:45:16.349Z,10.00
2023-03-01T07:46:16.375Z,10.40
2023-03-01T07:47:16.322Z,10.30
2023-03-01T07:48:16.309Z,11.40
2023-03-01T07:49:16.333Z,15.40
2023-03-01T07:50:17.161Z,29.90
2023-03-01T07:51:16.297Z,19.80
2023-03-01T07:52:16.272Z,12.60
2023-03-01T07:53:16.282Z,10.70
2023-03-01T07:54:17.284Z,10.00
2023-03-01T07:55:16.276Z,10.40
2023-03-01T07:56:16.292Z,10.00
2023-03-01T07:57:16.277Z,10.10
2023-03-01T07:58:16.326Z,9.80
2023-03-01T07:59:16.249Z,10.10
2023-03-01T08:00:16.239Z,10.40
2023-03-01T08:01:16.290Z,9.70
2023-03-01T08:02:16.229Z,9.90
2023-03-01T08:03:17.081Z,9.90
2023-03-01T08:04:16.198Z,9.60
2023-03-01T08:05:16.220Z,9.90
2023-03-01T08:06:16.216Z,10.30
2023-03-01T08:07:16.199Z,9.50
2023-03-01T08:08:17.492Z,9.60
2023-03-01T08:09:16.188Z,9.90
